createdAt,value
2022-12-23T00:02:00.449Z,27.00
2022-12-23T00:04:27.632Z,26.50
2022-12-23T00:06:54.922Z,26.50
2022-12-23T00:09:22.065Z,26.30
2022-12-23T00:12:07.807Z,25.70
2022-12-23T00:14:53.293Z,25.90
2022-12-23T00:17:23.539Z,25.60
2022-12-23T00:19:50.758Z,26.50
2022-12-23T00:22:17.921Z,27.30
2022-12-23T00:24:45.045Z,27.20
2022-12-23T00:27:12.255Z,27.90
2022-12-23T00:29:39.281Z,28.20
2022-12-23T00:32:06.507Z,28.70
2022-12-23T00:34:33.580Z,28.80
2022-12-23T00:37:00.591Z,29.30
2022-12-23T00:39:46.249Z,29.50
2022-12-23T00:42:39.572Z,28.60
2022-12-23T00:45:16.198Z,28.60
2022-12-23T00:48:06.256Z,28.50
2022-12-23T00:50:35.835Z,27.90
2022-12-23T00:53:03.321Z,27.30
2022-12-23T00:55:30.964Z,27.00
2022-12-23T00:57:58.150Z,27.00
2022-12-23T01:00:45.383Z,26.70
2022-12-23T01:03:32.999Z,26.80
2022-12-23T01:06:03.926Z,27.60
2022-12-23T01:08:30.998Z,27.20
2022-12-23T01:11:02.443Z,27.50
2022-12-23T01:13:29.472Z,27.40
2022-12-23T01:16:13.503Z,27.50
2022-12-23T01:18:44.138Z,27.40
2022-12-23T01:21:12.611Z,27.50
2022-12-23T01:23:39.950Z,27.50
2022-12-23T01:26:08.374Z,27.70
2022-12-23T01:28:36.625Z,28.40
2022-12-23T01:31:05.731Z,28.20
2022-12-23T01:33:34.010Z,28.70
2022-12-23T01:36:06.787Z,29.00
2022-12-23T01:38:35.494Z,29.20
2022-12-23T01:41:02.597Z,29.60
2022-12-23T01:43:50.815Z,29.90
2022-12-23T01:46:19.024Z,29.90
2022-12-23T01:48:52.042Z,30.20
2022-12-23T01:51:28.997Z,30.40
2022-12-23T01:54:01.316Z,30.10
2022-12-23T01:56:39.206Z,30.30
2022-12-23T01:59:09.149Z,30.70
2022-12-23T02:01:54.731Z,31.20
2022-12-23T02:04:25.017Z,30.50
2022-12-23T02:07:10.951Z,30.20
2022-12-23T02:09:40.326Z,30.50
2022-12-23T02:12:39.304Z,30.50
2022-12-23T02:15:52.330Z,30.70
2022-12-23T02:18:34.330Z,30.60
2022-12-23T02:21:01.445Z,29.70
2022-12-23T02:23:47.208Z,30.10
2022-12-23T02:26:30.907Z,30.00
2022-12-23T02:29:09.768Z,29.80
2022-12-23T02:32:07.725Z,29.40
2022-12-23T02:35:16.710Z,28.70
2022-12-23T02:38:04.348Z,28.20
2022-12-23T02:40:50.673Z,27.50
2022-12-23T02:43:38.711Z,27.10
2022-12-23T02:46:09.880Z,27.60
2022-12-23T02:48:45.399Z,28.10
2022-12-23T02:51:15.628Z,28.00
2022-12-23T02:53:54.343Z,27.80
2022-12-23T02:56:23.618Z,27.10
2022-12-23T02:59:05.783Z,27.20
2022-12-23T03:01:34.795Z,27.40
2022-12-23T03:04:01.995Z,28.10
2022-12-23T03:06:33.328Z,27.40
2022-12-23T03:09:00.935Z,27.40
2022-12-23T03:11:43.686Z,27.40
2022-12-23T03:14:34.384Z,27.50
2022-12-23T03:17:25.542Z,28.20
2022-12-23T03:20:03.649Z,27.90
2022-12-23T03:23:01.491Z,27.10
2022-12-23T03:25:38.534Z,27.70
2022-12-23T03:28:22.280Z,27.50
2022-12-23T03:30:55.249Z,27.50
2022-12-23T03:33:30.817Z,27.40
2022-12-23T03:36:05.560Z,27.00
2022-12-23T03:38:35.652Z,26.70
2022-12-23T03:41:11.099Z,26.00
2022-12-23T03:43:50.452Z,26.10
2022-12-23T03:46:30.385Z,25.70
2022-12-23T03:49:05.844Z,26.40
2022-12-23T03:51:51.016Z,27.00
2022-12-23T03:54:24.763Z,27.00
2022-12-23T03:57:02.501Z,26.90
2022-12-23T03:59:37.066Z,27.00
2022-12-23T04:02:04.250Z,26.70
2022-12-23T04:04:48.049Z,26.20
2022-12-23T04:07:33.945Z,26.00
2022-12-23T04:10:01.417Z,25.90
2022-12-23T04:12:29.641Z,26.00
2022-12-23T04:14:56.735Z,25.50
2022-12-23T04:17:23.943Z,26.30
2022-12-23T04:19:52.180Z,26.50
2022-12-23T04:22:19.320Z,26.40
2022-12-23T04:24:46.538Z,26.80
2022-12-23T04:27:15.991Z,26.60
2022-12-23T04:29:43.859Z,26.40
2022-12-23T04:32:13.989Z,26.20
2022-12-23T04:34:41.002Z,26.40
2022-12-23T04:37:08.104Z,26.30
2022-12-23T04:39:35.205Z,26.30
2022-12-23T04:42:02.365Z,26.40
2022-12-23T04:44:29.451Z,26.80
2022-12-23T04:46:56.656Z,27.50
2022-12-23T04:49:23.727Z,28.20
2022-12-23T04:51:50.747Z,28.30
2022-12-23T04:54:17.835Z,28.30
2022-12-23T04:56:44.896Z,28.30
2022-12-23T04:59:12.051Z,27.90
2022-12-23T05:01:39.430Z,27.90
2022-12-23T05:04:06.844Z,28.00
2022-12-23T05:06:34.045Z,29.10
2022-12-23T05:09:01.155Z,29.10
2022-12-23T05:11:28.718Z,29.20
2022-12-23T05:13:55.908Z,29.40
2022-12-23T05:16:23.141Z,28.80
2022-12-23T05:18:50.281Z,28.70
2022-12-23T05:21:17.857Z,28.60
2022-12-23T05:23:45.047Z,29.30
2022-12-23T05:26:12.223Z,28.80
2022-12-23T05:28:39.314Z,28.60
2022-12-23T05:31:08.154Z,28.10
2022-12-23T05:33:35.887Z,27.50
2022-12-23T05:36:03.302Z,26.70
2022-12-23T05:38:30.591Z,26.70
2022-12-23T05:40:57.880Z,26.90
2022-12-23T05:43:25.307Z,27.00
2022-12-23T05:45:52.888Z,26.90
2022-12-23T05:48:20.039Z,26.40
2022-12-23T05:50:51.551Z,26.50
2022-12-23T05:53:19.688Z,27.00
2022-12-23T05:55:47.153Z,26.00
2022-12-23T05:58:14.761Z,25.70
2022-12-23T06:00:41.860Z,24.80
2022-12-23T06:03:09.115Z,24.20
2022-12-23T06:05:37.918Z,24.40
2022-12-23T06:08:05.909Z,24.80
2022-12-23T06:10:33.005Z,24.70
2022-12-23T06:13:00.168Z,24.50
2022-12-23T06:15:27.764Z,24.50
2022-12-23T06:17:56.221Z,24.30
2022-12-23T06:20:23.254Z,24.30
2022-12-23T06:22:50.319Z,24.20
2022-12-23T06:25:17.945Z,24.30
2022-12-23T06:27:45.261Z,24.30
2022-12-23T06:30:14.676Z,24.00
2022-12-23T06:32:41.809Z,23.90
2022-12-23T06:35:09.477Z,24.00
2022-12-23T06:37:36.601Z,24.30
2022-12-23T06:40:04.015Z,24.20
2022-12-23T06:42:31.252Z,24.00
2022-12-23T06:44:58.381Z,23.90
2022-12-23T06:47:25.505Z,23.70
2022-12-23T06:49:52.629Z,23.70
2022-12-23T06:52:19.784Z,24.20
2022-12-23T06:54:46.926Z,24.60
2022-12-23T06:57:13.918Z,24.90
2022-12-23T06:59:41.225Z,24.90
2022-12-23T07:02:11.542Z,25.00
2022-12-23T07:04:38.924Z,25.20
2022-12-23T07:07:05.984Z,25.70
2022-12-23T07:09:33.153Z,25.50
2022-12-23T07:12:00.141Z,25.20
2022-12-23T07:14:27.230Z,25.00
2022-12-23T07:16:54.422Z,25.10
2022-12-23T07:19:21.529Z,25.60
2022-12-23T07:21:48.704Z,25.60
2022-12-23T07:24:16.117Z,25.50
2022-12-23T07:26:43.138Z,25.80
2022-12-23T07:29:10.246Z,26.20
2022-12-23T07:31:40.963Z,26.80
2022-12-23T07:34:08.576Z,26.90
2022-12-23T07:36:36.666Z,27.60
2022-12-23T07:39:04.606Z,28.40
2022-12-23T07:41:31.678Z,28.60
2022-12-23T07:43:58.696Z,28.70
2022-12-23T07:46:25.900Z,28.60
2022-12-23T07:48:52.938Z,28.70
2022-12-23T07:51:20.082Z,28.80
2022-12-23T07:53:50.634Z,27.90
2022-12-23T07:56:18.706Z,27.40
2022-12-23T07:58:53.321Z,26.70
2022-12-23T08:01:21.784Z,26.70
2022-12-23T08:03:49.480Z,27.30
2022-12-23T08:06:17.251Z,26.90
2022-12-23T08:08:46.192Z,26.90
2022-12-23T08:11:15.496Z,26.40
2022-12-23T08:13:45.055Z,26.80
2022-12-23T08:16:12.714Z,27.70
2022-12-23T08:18:41.574Z,28.00
2022-12-23T08:21:16.245Z,27.70
2022-12-23T08:23:43.829Z,28.70
2022-12-23T08:26:12.701Z,28.20
2022-12-23T08:28:41.258Z,28.70
2022-12-23T08:31:15.891Z,29.20
2022-12-23T08:33:44.940Z,29.00
2022-12-23T08:36:22.216Z,28.70
2022-12-23T08:38:51.795Z,28.80
2022-12-23T08:41:22.965Z,28.60
2022-12-23T08:43:50.277Z,28.20
2022-12-23T08:46:17.901Z,28.00
2022-12-23T08:48:49.190Z,27.60
2022-12-23T08:51:18.267Z,27.60
2022-12-23T08:53:46.124Z,27.50
2022-12-23T08:56:16.407Z,27.40
2022-12-23T08:58:45.729Z,28.30
2022-12-23T09:01:16.309Z,29.00
2022-12-23T09:03:44.370Z,29.40
2022-12-23T09:06:14.586Z,28.70
2022-12-23T09:08:42.708Z,27.70
2022-12-23T09:11:11.708Z,26.90
2022-12-23T09:13:39.543Z,26.40
2022-12-23T09:16:07.868Z,26.30
2022-12-23T09:18:35.887Z,26.80
2022-12-23T09:21:08.275Z,27.30
2022-12-23T09:23:35.630Z,27.40
2022-12-23T09:26:05.188Z,27.40
2022-12-23T09:28:32.226Z,27.60
2022-12-23T09:31:05.975Z,27.40
2022-12-23T09:33:33.368Z,27.50
2022-12-23T09:36:01.395Z,27.10
2022-12-23T09:38:28.493Z,26.70
2022-12-23T09:41:31.116Z,26.10
2022-12-23T09:44:35.673Z,25.60
2022-12-23T09:47:05.240Z,25.80
2022-12-23T09:49:33.469Z,25.90
2022-12-23T09:52:04.523Z,25.90
2022-12-23T09:54:46.144Z,26.90
2022-12-23T09:57:47.345Z,26.50
2022-12-23T10:00:17.571Z,25.90
2022-12-23T10:02:50.701Z,26.20
2022-12-23T10:05:48.150Z,27.00
2022-12-23T10:08:24.398Z,27.20
2022-12-23T10:11:29.633Z,27.00
2022-12-23T10:13:59.172Z,27.10
2022-12-23T10:16:38.187Z,26.80
2022-12-23T10:19:15.423Z,26.90
2022-12-23T10:21:50.484Z,26.90
2022-12-23T10:24:24.477Z,26.80
2022-12-23T10:27:12.457Z,27.20
2022-12-23T10:29:40.423Z,27.30
2022-12-23T10:32:36.925Z,27.30
2022-12-23T10:35:42.531Z,27.00
2022-12-23T10:38:37.995Z,26.70
2022-12-23T10:41:32.083Z,27.20
2022-12-23T10:44:14.025Z,26.90
2022-12-23T10:46:54.460Z,26.40
2022-12-23T10:50:15.463Z,25.90
2022-12-23T10:52:45.578Z,26.30
2022-12-23T10:55:35.614Z,26.20
2022-12-23T10:58:17.746Z,26.00
2022-12-23T11:01:00.523Z,26.50
2022-12-23T11:03:37.446Z,26.30
2022-12-23T11:06:08.183Z,25.10
2022-12-23T11:08:36.490Z,24.90
2022-12-23T11:11:04.264Z,24.50
2022-12-23T11:13:39.264Z,24.90
2022-12-23T11:16:26.527Z,25.10
2022-12-23T11:18:54.040Z,25.00
2022-12-23T11:21:21.386Z,25.30
2022-12-23T11:24:05.399Z,25.80
2022-12-23T11:26:32.893Z,26.10
2022-12-23T11:29:10.205Z,26.00
2022-12-23T11:31:37.980Z,25.60
2022-12-23T11:34:07.727Z,25.60
2022-12-23T11:36:35.344Z,25.70
2022-12-23T11:39:17.547Z,26.60
2022-12-23T11:41:50.855Z,26.40
2022-12-23T11:44:37.897Z,25.80
2022-12-23T11:47:23.151Z,25.50
2022-12-23T11:49:55.607Z,26.10
2022-12-23T11:52:25.613Z,25.70
2022-12-23T11:55:01.692Z,25.20
2022-12-23T11:57:49.132Z,25.20
2022-12-23T12:00:26.568Z,25.10
2022-12-23T12:02:58.470Z,25.20
2022-12-23T12:05:33.978Z,26.20
2022-12-23T12:08:09.572Z,25.90
2022-12-23T12:10:39.842Z,26.00
2022-12-23T12:13:20.310Z,26.60
2022-12-23T12:16:13.612Z,26.50
2022-12-23T12:18:43.109Z,26.20
2022-12-23T12:21:16.357Z,25.90
2022-12-23T12:23:48.028Z,25.90
2022-12-23T12:26:23.767Z,26.00
2022-12-23T12:29:00.893Z,25.40
2022-12-23T12:31:38.353Z,25.30
2022-12-23T12:34:26.435Z,25.10
2022-12-23T12:37:16.809Z,24.70
2022-12-23T12:39:50.737Z,24.50
2022-12-23T12:42:35.794Z,24.50
2022-12-23T12:45:13.271Z,24.30
2022-12-23T12:48:01.414Z,24.40
2022-12-23T12:50:39.766Z,24.00
2022-12-23T12:53:15.875Z,24.20
2022-12-23T12:55:51.078Z,24.00
2022-12-23T12:58:23.188Z,24.00
2022-12-23T13:01:11.990Z,23.90
2022-12-23T13:03:39.185Z,23.70
2022-12-23T13:06:33.022Z,23.70
2022-12-23T13:09:33.583Z,23.60
2022-12-23T13:12:06.165Z,23.60
2022-12-23T13:15:00.803Z,23.50
2022-12-23T13:18:03.524Z,23.30
2022-12-23T13:20:51.298Z,23.00
2022-12-23T13:24:08.909Z,23.80
2022-12-23T13:26:58.314Z,24.30
2022-12-23T13:30:02.316Z,25.10
2022-12-23T13:33:06.931Z,24.50
2022-12-23T13:36:04.758Z,24.30
2022-12-23T13:39:03.903Z,24.10
2022-12-23T13:41:40.103Z,24.10
2022-12-23T13:44:11.042Z,23.90
2022-12-23T13:46:41.464Z,24.00
2022-12-23T13:49:35.180Z,24.00
2022-12-23T13:52:24.933Z,23.90
2022-12-23T13:55:13.666Z,24.00
2022-12-23T13:58:17.620Z,24.20
2022-12-23T14:00:45.027Z,23.90
2022-12-23T14:03:15.109Z,23.70
2022-12-23T14:05:52.567Z,23.60
2022-12-23T14:08:19.628Z,23.40
2022-12-23T14:11:00.755Z,23.40
2022-12-23T14:13:38.180Z,23.50
2022-12-23T14:16:17.619Z,23.40
2022-12-23T14:19:19.156Z,23.60
2022-12-23T14:21:55.376Z,23.90
2022-12-23T14:24:48.976Z,23.70
2022-12-23T14:27:42.843Z,23.70
2022-12-23T14:30:22.317Z,23.50
2022-12-23T14:32:58.398Z,23.80
2022-12-23T14:35:45.600Z,23.80
2022-12-23T14:38:15.528Z,23.60
2022-12-23T14:40:42.505Z,23.80
2022-12-23T14:43:43.520Z,24.00
2022-12-23T14:46:36.539Z,24.40
2022-12-23T14:49:37.102Z,24.30
2022-12-23T14:51:51.510Z,24.20
2022-12-23T14:54:37.771Z,23.80
2022-12-23T14:57:16.490Z,23.40
2022-12-23T14:59:44.257Z,23.10
2022-12-23T15:02:31.290Z,22.80
2022-12-23T15:04:59.859Z,22.80
2022-12-23T15:07:30.041Z,22.70
2022-12-23T15:10:13.632Z,22.70
2022-12-23T15:12:46.081Z,22.70
2022-12-23T15:15:26.247Z,22.80
2022-12-23T15:18:05.256Z,22.40
2022-12-23T15:20:33.184Z,22.40
2022-12-23T15:23:01.721Z,22.80
2022-12-23T15:25:49.406Z,22.70
2022-12-23T15:28:22.753Z,22.40
2022-12-23T15:30:58.868Z,22.30
2022-12-23T15:36:36.120Z,22.20
2022-12-23T15:39:10.898Z,22.00
2022-12-23T15:41:48.410Z,22.10
2022-12-23T15:44:21.534Z,22.30
2022-12-23T15:46:50.592Z,22.20
2022-12-23T15:49:20.329Z,22.00
2022-12-23T15:52:07.914Z,22.00
2022-12-23T15:54:45.532Z,21.90
2022-12-23T15:57:19.435Z,21.70
2022-12-23T15:59:47.078Z,22.20
2022-12-23T16:05:10.685Z,22.70
2022-12-23T16:07:41.186Z,22.60
2022-12-23T16:10:21.443Z,22.50
2022-12-23T16:12:50.799Z,22.40
2022-12-23T16:15:32.025Z,22.50
2022-12-23T16:18:12.325Z,22.50
2022-12-23T16:20:45.735Z,22.30
2022-12-23T16:23:13.811Z,22.20
2022-12-23T16:25:50.107Z,23.60
2022-12-23T16:28:26.905Z,23.40
2022-12-23T16:30:57.327Z,23.40
2022-12-23T16:33:45.503Z,23.00
2022-12-23T16:36:27.758Z,22.60
2022-12-23T16:39:07.300Z,22.30
2022-12-23T16:41:35.308Z,22.10
2022-12-23T16:44:03.007Z,21.80
2022-12-23T16:46:36.770Z,21.70
2022-12-23T16:49:08.447Z,21.70
2022-12-23T16:51:36.576Z,21.80
2022-12-23T16:54:04.086Z,21.60
2022-12-23T16:56:35.798Z,21.40
2022-12-23T16:59:03.973Z,21.40
2022-12-23T17:01:43.662Z,21.30
2022-12-23T17:04:11.084Z,21.30
2022-12-23T17:06:38.799Z,20.90
2022-12-23T17:09:07.212Z,21.10
2022-12-23T17:11:43.866Z,21.00
2022-12-23T17:14:29.065Z,21.00
2022-12-23T17:16:56.344Z,20.90
2022-12-23T17:19:28.972Z,20.80
2022-12-23T17:22:01.062Z,20.90
2022-12-23T17:24:28.482Z,20.80
2022-12-23T17:26:57.045Z,21.10
2022-12-23T17:29:24.469Z,21.10
2022-12-23T17:31:52.110Z,21.20
2022-12-23T17:34:23.815Z,21.00
2022-12-23T17:36:51.499Z,21.00
2022-12-23T17:39:19.526Z,21.00
2022-12-23T17:41:47.060Z,21.20
2022-12-23T17:44:15.977Z,21.70
2022-12-23T17:46:44.623Z,21.70
2022-12-23T17:49:11.954Z,21.70
2022-12-23T17:51:40.298Z,21.40
2022-12-23T17:54:07.539Z,21.30
2022-12-23T17:56:34.742Z,21.30
2022-12-23T17:59:01.847Z,21.20
2022-12-23T18:01:31.506Z,21.30
2022-12-23T18:04:00.094Z,21.70
2022-12-23T18:06:28.952Z,23.10
2022-12-23T18:08:59.115Z,25.00
2022-12-23T18:11:39.505Z,24.30
2022-12-23T18:14:12.769Z,22.30
2022-12-23T18:16:39.902Z,22.10
2022-12-23T18:19:16.604Z,21.50
2022-12-23T18:21:44.005Z,21.70
2022-12-23T18:24:11.427Z,21.50
2022-12-23T18:26:38.632Z,21.40
2022-12-23T18:29:05.698Z,21.20
2022-12-23T18:31:33.074Z,21.10
2022-12-23T18:34:00.291Z,21.10
2022-12-23T18:36:30.748Z,21.10
2022-12-23T18:38:58.080Z,21.30
2022-12-23T18:41:26.751Z,21.20
2022-12-23T18:43:54.634Z,21.20
2022-12-23T18:46:22.439Z,21.10
2022-12-23T18:48:49.770Z,20.90
2022-12-23T18:51:20.306Z,20.80
2022-12-23T18:53:48.653Z,20.70
2022-12-23T18:56:19.345Z,20.80
2022-12-23T18:58:46.452Z,21.50
2022-12-23T19:01:17.816Z,20.70
2022-12-23T19:03:45.476Z,20.70
2022-12-23T19:06:15.145Z,21.50
2022-12-23T19:08:43.431Z,22.80
2022-12-23T19:11:18.280Z,21.70
2022-12-23T19:13:46.005Z,21.30
2022-12-23T19:16:15.791Z,21.10
2022-12-23T19:18:43.514Z,21.00
2022-12-23T19:21:10.717Z,21.00
2022-12-23T19:23:41.011Z,20.90
2022-12-23T19:26:14.688Z,20.80
2022-12-23T19:28:42.751Z,20.70
2022-12-23T19:31:15.050Z,20.70
2022-12-23T19:33:46.097Z,20.80
2022-12-23T19:36:19.521Z,20.70
2022-12-23T19:38:47.682Z,20.80
2022-12-23T19:41:14.765Z,20.60
2022-12-23T19:43:44.679Z,20.80
2022-12-23T19:46:12.692Z,20.70
2022-12-23T19:48:39.790Z,20.90
2022-12-23T19:51:09.895Z,20.80
2022-12-23T19:53:37.943Z,20.60
2022-12-23T19:56:10.822Z,20.50
2022-12-23T19:58:42.485Z,21.20
2022-12-23T20:01:11.903Z,21.70
2022-12-23T20:03:40.534Z,21.10
2022-12-23T20:06:11.747Z,21.10
2022-12-23T20:08:38.719Z,20.90
2022-12-23T20:11:13.060Z,20.70
2022-12-23T20:13:40.369Z,20.60
2022-12-23T20:16:08.672Z,20.50
2022-12-23T20:18:36.560Z,20.80
2022-12-23T20:21:04.591Z,20.80
2022-12-23T20:23:31.778Z,20.70
2022-12-23T20:25:59.241Z,20.70
2022-12-23T20:28:27.332Z,20.50
2022-12-23T20:31:07.519Z,20.30
2022-12-23T20:33:39.446Z,20.40
2022-12-23T20:36:07.659Z,20.50
2022-12-23T20:38:40.033Z,20.40
2022-12-23T20:41:09.139Z,20.70
2022-12-23T20:43:36.692Z,20.90
2022-12-23T20:46:08.594Z,21.10
2022-12-23T20:48:35.779Z,21.30
2022-12-23T20:51:07.745Z,21.10
2022-12-23T20:53:35.390Z,21.10
2022-12-23T20:56:21.922Z,20.90
2022-12-23T20:58:54.791Z,20.90
2022-12-23T21:01:32.970Z,20.80
2022-12-23T21:04:02.546Z,20.80
2022-12-23T21:06:31.226Z,20.70
2022-12-23T21:08:59.986Z,20.60
2022-12-23T21:11:31.923Z,20.40
2022-12-23T21:14:06.449Z,20.60
2022-12-23T21:16:38.492Z,20.60
2022-12-23T21:19:08.443Z,20.70
2022-12-23T21:21:35.969Z,20.60
2022-12-23T21:24:04.916Z,20.30
2022-12-23T21:26:34.072Z,20.70
2022-12-23T21:29:03.991Z,20.30
2022-12-23T21:31:33.390Z,20.30
2022-12-23T21:34:01.116Z,20.40
2022-12-23T21:36:31.255Z,20.40
2022-12-23T21:38:59.428Z,20.30
2022-12-23T21:41:36.993Z,20.20
2022-12-23T21:44:04.861Z,20.20
2022-12-23T21:46:32.351Z,20.10
2022-12-23T21:48:59.798Z,20.20
2022-12-23T21:51:38.559Z,20.30
2022-12-23T21:54:07.769Z,20.20
2022-12-23T21:56:35.012Z,20.40
2022-12-23T21:59:06.632Z,20.30
2022-12-23T22:01:34.383Z,20.30
2022-12-23T22:04:01.556Z,20.10
2022-12-23T22:06:32.028Z,20.10
2022-12-23T22:08:59.802Z,20.00
2022-12-23T22:11:30.247Z,19.90
2022-12-23T22:13:58.951Z,19.80
2022-12-23T22:16:28.217Z,19.90
2022-12-23T22:18:56.755Z,19.80
2022-12-23T22:21:25.600Z,19.80
2022-12-23T22:23:54.231Z,19.90
2022-12-23T22:26:26.022Z,19.80
2022-12-23T22:28:58.821Z,19.90
2022-12-23T22:31:36.705Z,20.00
2022-12-23T22:34:04.846Z,19.90
2022-12-23T22:36:32.755Z,19.90
2022-12-23T22:39:01.602Z,19.90
2022-12-23T22:41:30.386Z,19.80
2022-12-23T22:43:58.475Z,19.80
2022-12-23T22:46:26.336Z,19.60
2022-12-23T22:48:54.474Z,19.80
2022-12-23T22:51:24.477Z,19.80
2022-12-23T22:53:52.025Z,20.00
2022-12-23T22:56:20.785Z,19.90
2022-12-23T22:58:48.317Z,19.90
2022-12-23T23:01:28.268Z,20.00
2022-12-23T23:03:57.680Z,19.90
2022-12-23T23:06:27.331Z,19.80
2022-12-23T23:08:55.990Z,20.00
2022-12-23T23:11:24.072Z,20.00
2022-12-23T23:13:51.510Z,20.00
2022-12-23T23:16:18.791Z,20.00
2022-12-23T23:18:45.923Z,20.00
2022-12-23T23:21:14.197Z,20.10
2022-12-23T23:23:41.697Z,20.00
2022-12-23T23:26:10.420Z,20.10
2022-12-23T23:28:39.548Z,20.10
2022-12-23T23:31:40.651Z,20.20
2022-12-23T23:33:54.546Z,20.20
2022-12-23T23:36:21.708Z,20.10
2022-12-23T23:38:48.978Z,20.10
2022-12-23T23:41:22.497Z,20.00
2022-12-23T23:43:50.663Z,20.10
2022-12-23T23:46:18.095Z,20.20
2022-12-23T23:48:45.222Z,20.00
2022-12-23T23:51:12.982Z,20.00
2022-12-23T23:53:40.774Z,20.00
2022-12-23T23:56:08.926Z,20.10
2022-12-23T23:58:37.672Z,19.90
